<?xml version='1.0' encoding='UTF-8'?>
<gpx xmlns="http://www.topografix.com/GPX/1/1" creator="www.balnam.be" version="1.1" xmlns:xsi="http://www.w3.org/2001/XMLSchema-instance" xsi:schemaLocation="http://www.topografix.com/GPX/1/1 http://www.topografix.com/GPX/1/1/gpx.xsd">
<trk>
<name>bolot60</name>
<cmt>v</cmt>
<desc>Ottignies Sentier n°60 Rue Haute / Boulevard de Lauzelle / Avenue de Lauzelle / Tailles des Faudes</desc>
<link href="https://chemins.be/ottignies/sentier/60"/><trkseg>
<trkpt lat="50.666721" lon="4.597177"><time>2026-05-08T03:56:42Z</time></trkpt>
<trkpt lat="50.666888" lon="4.597096"><time>2026-05-08T04:06:42Z</time></trkpt>
<trkpt lat="50.667609" lon="4.596592"><time>2026-05-08T04:16:42Z</time></trkpt>
<trkpt lat="50.667663" lon="4.596734"><time>2026-05-08T04:26:42Z</time></trkpt>
<trkpt lat="50.668449" lon="4.596382"><time>2026-05-08T04:36:42Z</time></trkpt>
</trkseg></trk>
<trk>
<name>bolot60</name>
<cmt>d</cmt>
<desc>Ottignies Sentier n°60 Rue Haute / Boulevard de Lauzelle / Avenue de Lauzelle / Tailles des Faudes</desc>
<link href="https://chemins.be/ottignies/sentier/60"/><trkseg>
<trkpt lat="50.668449" lon="4.596382"><time>2026-05-08T04:36:42Z</time></trkpt>
<trkpt lat="50.669206" lon="4.596019"><time>2026-05-08T04:46:42Z</time></trkpt>
<trkpt lat="50.669531" lon="4.595943"><time>2026-05-08T04:56:42Z</time></trkpt>
</trkseg></trk>
<trk>
<name>bolot60</name>
<cmt>v</cmt>
<desc>Ottignies Sentier n°60 Rue Haute / Boulevard de Lauzelle / Avenue de Lauzelle / Tailles des Faudes</desc>
<link href="https://chemins.be/ottignies/sentier/60"/><trkseg>
<trkpt lat="50.669531" lon="4.595943"><time>2026-05-08T04:56:42Z</time></trkpt>
<trkpt lat="50.669649" lon="4.595757"><time>2026-05-08T05:06:42Z</time></trkpt>
</trkseg></trk>
<trk>
<name>bolot60</name>
<cmt>r</cmt>
<desc>Ottignies Sentier n°60 Rue Haute / Boulevard de Lauzelle / Avenue de Lauzelle / Tailles des Faudes</desc>
<link href="https://chemins.be/ottignies/sentier/60"/><trkseg>
<trkpt lat="50.669649" lon="4.595757"><time>2026-05-08T05:06:42Z</time></trkpt>
<trkpt lat="50.669765" lon="4.595959"><time>2026-05-08T05:16:42Z</time></trkpt>
</trkseg></trk>
<trk>
<name>bolot60</name>
<cmt>v</cmt>
<desc>Ottignies Sentier n°60 Rue Haute / Boulevard de Lauzelle / Avenue de Lauzelle / Tailles des Faudes</desc>
<link href="https://chemins.be/ottignies/sentier/60"/><trkseg>
<trkpt lat="50.669765" lon="4.595959"><time>2026-05-08T05:16:42Z</time></trkpt>
<trkpt lat="50.670087" lon="4.595697"><time>2026-05-08T05:26:42Z</time></trkpt>
<trkpt lat="50.670420" lon="4.595564"><time>2026-05-08T05:36:42Z</time></trkpt>
<trkpt lat="50.670769" lon="4.596054"><time>2026-05-08T05:46:42Z</time></trkpt>
<trkpt lat="50.672306" lon="4.595991"><time>2026-05-08T05:56:42Z</time></trkpt>
<trkpt lat="50.674132" lon="4.595731"><time>2026-05-08T06:06:42Z</time></trkpt>
<trkpt lat="50.674312" lon="4.595788"><time>2026-05-08T06:16:42Z</time></trkpt>
</trkseg></trk>
<trk>
<name>bolot60</name>
<cmt>d</cmt>
<desc>Ottignies Sentier n°60 Rue Haute / Boulevard de Lauzelle / Avenue de Lauzelle / Tailles des Faudes</desc>
<link href="https://chemins.be/ottignies/sentier/60"/><trkseg>
<trkpt lat="50.674312" lon="4.595788"><time>2026-05-08T06:16:42Z</time></trkpt>
<trkpt lat="50.674629" lon="4.594460"><time>2026-05-08T06:26:42Z</time></trkpt>
<trkpt lat="50.675453" lon="4.593731"><time>2026-05-08T06:36:42Z</time></trkpt>
</trkseg></trk>
<trk>
<name>bolot60</name>
<cmt>v</cmt>
<desc>Ottignies Sentier n°60 Rue Haute / Boulevard de Lauzelle / Avenue de Lauzelle / Tailles des Faudes</desc>
<link href="https://chemins.be/ottignies/sentier/60"/><trkseg>
<trkpt lat="50.675453" lon="4.593731"><time>2026-05-08T06:36:42Z</time></trkpt>
<trkpt lat="50.675508" lon="4.593377"><time>2026-05-08T06:46:42Z</time></trkpt>
<trkpt lat="50.675673" lon="4.593219"><time>2026-05-08T06:56:42Z</time></trkpt>
<trkpt lat="50.675775" lon="4.593312"><time>2026-05-08T07:06:42Z</time></trkpt>
<trkpt lat="50.676072" lon="4.593192"><time>2026-05-08T07:16:42Z</time></trkpt>
</trkseg>
</trk>
</gpx>